Wetterdaten: Woche 12.06.17 - 18.06.17 (KW24)
Datum Zeit Temperatur Luftfeuchte Luftdruck Niederschlag Windrichtung Sonnenschein Solar Wind
12.06.2017 00:00 20,0 C 73 % 1012,3 hPa 0,0 l/m S-SO 0,00 h 0 W/m 6,0 km/h (2 Bft)
12.06.2017 01:00 20,9 C 66 % 1012,5 hPa 0,0 l/m W-SW 0,00 h 0 W/m 7,6 km/h (2 Bft)
12.06.2017 02:00 19,8 C 71 % 1012,4 hPa 0,0 l/m W 0,00 h 0 W/m 4,1 km/h (1 Bft)
12.06.2017 03:00 19,6 C 75 % 1012,4 hPa 0,0 l/m N 0,00 h 0 W/m 0,7 km/h (0 Bft)
12.06.2017 04:00 18,7 C 80 % 1012,5 hPa 0,0 l/m N 0,00 h 0 W/m 0,0 km/h (0 Bft)
12.06.2017 05:00 17,6 C 83 % 1012,5 hPa 0,0 l/m N 0,17 h 13 W/m 0,1 km/h (0 Bft)
12.06.2017 06:00 17,4 C 86 % 1012,5 hPa 0,0 l/m SW 0,25 h 48 W/m 6,3 km/h (2 Bft)
12.06.2017 07:00 18,8 C 84 % 1012,5 hPa 0,0 l/m SW 0,00 h 86 W/m 2,8 km/h (1 Bft)
12.06.2017 08:00 19,6 C 84 % 1012,6 hPa 0,0 l/m SW 0,00 h 95 W/m 1,5 km/h (1 Bft)
12.06.2017 09:00 20,6 C 81 % 1012,6 hPa 0,0 l/m W-SW 0,00 h 167 W/m 8,3 km/h (2 Bft)
12.06.2017 10:00 23,0 C 73 % 1012,7 hPa 0,0 l/m W 0,83 h 649 W/m 18,0 km/h (3 Bft)
12.06.2017 11:00 24,7 C 68 % 1012,5 hPa 0,0 l/m SW 0,67 h 671 W/m 18,5 km/h (3 Bft)
12.06.2017 12:00 26,0 C 64 % 1012,3 hPa 0,0 l/m W-SW 0,83 h 816 W/m 20,2 km/h (4 Bft)
12.06.2017 13:00 24,3 C 72 % 1012,3 hPa 0,0 l/m W-SW 0,17 h 292 W/m 15,0 km/h (3 Bft)
12.06.2017 14:00 25,0 C 73 % 1012,2 hPa 0,0 l/m W-SW 0,33 h 532 W/m 11,8 km/h (2 Bft)
12.06.2017 15:00 26,4 C 61 % 1012,1 hPa 0,0 l/m W 0,50 h 551 W/m 17,7 km/h (3 Bft)
12.06.2017 16:00 26,6 C 57 % 1012,2 hPa 0,0 l/m W-NW 0,42 h 419 W/m 18,6 km/h (3 Bft)
12.06.2017 17:00 26,3 C 55 % 1012,2 hPa 0,0 l/m W-NW 0,83 h 511 W/m 21,7 km/h (4 Bft)
12.06.2017 18:00 25,7 C 53 % 1012,3 hPa 0,0 l/m W-NW 1,00 h 345 W/m 23,2 km/h (4 Bft)
12.06.2017 19:00 24,5 C 58 % 1012,6 hPa 0,0 l/m N-NW 0,92 h 177 W/m 15,2 km/h (3 Bft)
12.06.2017 20:00 22,3 C 64 % 1012,9 hPa 0,0 l/m NW 0,00 h 40 W/m 10,1 km/h (2 Bft)
12.06.2017 21:00 20,4 C 67 % 1013,3 hPa 0,0 l/m N-NW 0,00 h 9 W/m 7,6 km/h (2 Bft)
12.06.2017 22:00 18,8 C 71 % 1013,9 hPa 0,0 l/m NW 0,00 h 0 W/m 4,8 km/h (1 Bft)
12.06.2017 23:00 17,9 C 72 % 1014,3 hPa 0,0 l/m N 0,00 h 0 W/m 2,0 km/h (1 Bft)
13.06.2017 00:00 15,9 C 80 % 1014,8 hPa 0,0 l/m N 0,00 h 0 W/m 0,0 km/h (0 Bft)
13.06.2017 01:00 15,5 C 79 % 1014,8 hPa 0,0 l/m N 0,00 h 0 W/m 0,1 km/h (0 Bft)
13.06.2017 02:00 15,8 C 74 % 1015,1 hPa 0,0 l/m N 0,00 h 0 W/m 0,0 km/h (0 Bft)
13.06.2017 03:00 15,2 C 75 % 1015,0 hPa 0,0 l/m N 0,00 h 0 W/m 0,0 km/h (0 Bft)
13.06.2017 04:00 14,8 C 76 % 1015,1 hPa 0,0 l/m N 0,00 h 0 W/m 0,0 km/h (0 Bft)
13.06.2017 05:00 13,7 C 77 % 1015,3 hPa 0,0 l/m N 0,42 h 18 W/m 0,0 km/h (0 Bft)
13.06.2017 06:00 13,2 C 82 % 1015,3 hPa 0,0 l/m N 0,92 h 109 W/m 0,0 km/h (0 Bft)
13.06.2017 07:00 15,6 C 74 % 1015,4 hPa 0,0 l/m NW 0,83 h 262 W/m 1,6 km/h (1 Bft)
13.06.2017 08:00 17,1 C 68 % 1015,5 hPa 0,0 l/m O-NO 1,00 h 461 W/m 7,5 km/h (2 Bft)
13.06.2017 09:00 18,6 C 63 % 1015,4 hPa 0,0 l/m O-SO 0,75 h 448 W/m 6,8 km/h (2 Bft)
13.06.2017 10:00 19,9 C 61 % 1015,3 hPa 0,0 l/m O 0,83 h 610 W/m 4,9 km/h (1 Bft)
13.06.2017 11:00 21,3 C 59 % 1015,1 hPa 0,0 l/m O 1,00 h 838 W/m 7,6 km/h (2 Bft)
13.06.2017 12:00 22,8 C 57 % 1014,8 hPa 0,0 l/m O-SO 1,00 h 892 W/m 9,4 km/h (2 Bft)
13.06.2017 13:00 24,0 C 53 % 1014,4 hPa 0,0 l/m NO 1,00 h 895 W/m 8,4 km/h (2 Bft)
13.06.2017 14:00 24,8 C 51 % 1013,9 hPa 0,0 l/m SO 0,83 h 683 W/m 7,9 km/h (2 Bft)
13.06.2017 15:00 25,5 C 48 % 1013,6 hPa 0,0 l/m SO 0,92 h 759 W/m 7,2 km/h (2 Bft)
13.06.2017 16:00 26,4 C 45 % 1013,2 hPa 0,0 l/m W-SW 1,00 h 669 W/m 9,8 km/h (2 Bft)
13.06.2017 17:00 27,0 C 43 % 1012,9 hPa 0,0 l/m S 1,00 h 520 W/m 7,9 km/h (2 Bft)
13.06.2017 18:00 26,6 C 43 % 1012,7 hPa 0,0 l/m O-SO 0,67 h 288 W/m 7,9 km/h (2 Bft)
13.06.2017 19:00 24,7 C 49 % 1012,5 hPa 0,0 l/m O-SO 0,17 h 114 W/m 8,8 km/h (2 Bft)
13.06.2017 20:00 22,1 C 54 % 1012,8 hPa 0,0 l/m N-NO 0,00 h 46 W/m 16,6 km/h (3 Bft)
13.06.2017 21:00 19,5 C 62 % 1013,5 hPa 0,0 l/m N-NO 0,00 h 8 W/m 6,6 km/h (2 Bft)
13.06.2017 22:00 17,8 C 69 % 1014,5 hPa 0,0 l/m N-NO 0,00 h 0 W/m 5,7 km/h (1 Bft)
13.06.2017 23:00 17,1 C 73 % 1014,6 hPa 0,0 l/m N-NO 0,00 h 0 W/m 3,3 km/h (1 Bft)
14.06.2017 00:00 16,3 C 76 % 1014,6 hPa 0,0 l/m N-NO 0,00 h 0 W/m 3,9 km/h (1 Bft)
14.06.2017 01:00 15,5 C 76 % 1014,6 hPa 0,0 l/m N-NO 0,00 h 0 W/m 8,2 km/h (2 Bft)
14.06.2017 02:00 15,0 C 78 % 1014,6 hPa 0,0 l/m N-NO 0,00 h 0 W/m 5,6 km/h (1 Bft)
14.06.2017 03:00 14,4 C 80 % 1014,2 hPa 0,0 l/m N-NO 0,00 h 0 W/m 2,7 km/h (1 Bft)
14.06.2017 04:00 13,7 C 83 % 1014,6 hPa 0,0 l/m N-NO 0,00 h 0 W/m 5,5 km/h (1 Bft)
14.06.2017 05:00 13,1 C 85 % 1014,8 hPa 0,0 l/m N-NO 0,33 h 20 W/m 6,0 km/h (2 Bft)
14.06.2017 06:00 13,3 C 85 % 1015,1 hPa 0,0 l/m N-NO 0,67 h 97 W/m 6,0 km/h (2 Bft)
14.06.2017 07:00 14,5 C 81 % 1015,1 hPa 0,0 l/m N-NO 0,50 h 193 W/m 8,4 km/h (2 Bft)
14.06.2017 08:00 16,0 C 74 % 1015,1 hPa 0,0 l/m NO 0,92 h 275 W/m 8,6 km/h (2 Bft)
14.06.2017 09:00 17,8 C 69 % 1015,0 hPa 0,0 l/m O-NO 0,50 h 333 W/m 11,5 km/h (2 Bft)
14.06.2017 10:00 18,4 C 68 % 1015,3 hPa 0,0 l/m O-NO 0,42 h 398 W/m 12,9 km/h (3 Bft)
14.06.2017 11:00 19,7 C 65 % 1015,3 hPa 0,0 l/m O-SO 0,92 h 699 W/m 14,2 km/h (3 Bft)
14.06.2017 12:00 21,6 C 61 % 1014,9 hPa 0,0 l/m O 1,00 h 713 W/m 13,6 km/h (3 Bft)
14.06.2017 13:00 22,8 C 58 % 1014,6 hPa 0,0 l/m O-SO 1,00 h 740 W/m 13,4 km/h (3 Bft)
14.06.2017 14:00 24,2 C 55 % 1014,2 hPa 0,0 l/m O-SO 1,00 h 806 W/m 11,9 km/h (2 Bft)
14.06.2017 15:00 25,1 C 54 % 1013,7 hPa 0,0 l/m O-NO 1,00 h 779 W/m 12,2 km/h (2 Bft)
14.06.2017 16:00 25,9 C 53 % 1013,2 hPa 0,0 l/m O-SO 1,00 h 652 W/m 12,0 km/h (2 Bft)
14.06.2017 17:00 25,9 C 52 % 1012,7 hPa 0,0 l/m NO 1,00 h 498 W/m 9,0 km/h (2 Bft)
14.06.2017 18:00 25,6 C 52 % 1012,2 hPa 0,0 l/m O-NO 1,00 h 317 W/m 10,3 km/h (2 Bft)
14.06.2017 19:00 24,4 C 57 % 1012,3 hPa 0,0 l/m NO 0,83 h 166 W/m 10,9 km/h (2 Bft)
14.06.2017 20:00 22,9 C 62 % 1012,2 hPa 0,0 l/m NO 0,00 h 44 W/m 8,0 km/h (2 Bft)
14.06.2017 21:00 20,2 C 74 % 1012,5 hPa 0,0 l/m N 0,08 h 10 W/m 0,8 km/h (0 Bft)
14.06.2017 22:00 17,9 C 82 % 1012,8 hPa 0,0 l/m NO 0,00 h 0 W/m 0,3 km/h (0 Bft)
14.06.2017 23:00 17,1 C 84 % 1012,9 hPa 0,0 l/m N 0,00 h 0 W/m 0,3 km/h (0 Bft)
15.06.2017 00:00 16,4 C 85 % 1013,2 hPa 0,0 l/m N 0,00 h 0 W/m 0,0 km/h (0 Bft)
15.06.2017 01:00 15,8 C 86 % 1013,1 hPa 0,0 l/m NO 0,00 h 0 W/m 0,9 km/h (0 Bft)
15.06.2017 02:00 15,3 C 88 % 1013,1 hPa 0,0 l/m NO 0,00 h 0 W/m 3,1 km/h (1 Bft)
15.06.2017 03:00 14,9 C 89 % 1013,3 hPa 0,0 l/m NO 0,00 h 0 W/m 1,1 km/h (0 Bft)
15.06.2017 04:00 14,3 C 90 % 1013,4 hPa 0,0 l/m N 0,00 h 0 W/m 0,0 km/h (0 Bft)
15.06.2017 05:00 13,8 C 91 % 1013,8 hPa 0,0 l/m N 0,08 h 12 W/m 0,0 km/h (0 Bft)
15.06.2017 06:00 14,1 C 92 % 1014,0 hPa 0,0 l/m N 0,00 h 64 W/m 0,0 km/h (0 Bft)
15.06.2017 07:00 15,3 C 90 % 1014,0 hPa 0,0 l/m NO 0,17 h 139 W/m 0,9 km/h (0 Bft)
15.06.2017 08:00 18,0 C 85 % 1014,1 hPa 0,0 l/m NO 1,00 h 416 W/m 3,3 km/h (1 Bft)
15.06.2017 09:00 21,4 C 79 % 1014,0 hPa 0,0 l/m W-SW 0,75 h 418 W/m 12,5 km/h (3 Bft)
15.06.2017 10:00 23,7 C 75 % 1013,7 hPa 0,0 l/m SW 0,92 h 636 W/m 11,6 km/h (2 Bft)
15.06.2017 11:00 25,2 C 70 % 1013,7 hPa 0,0 l/m W-SW 1,00 h 821 W/m 16,9 km/h (3 Bft)
15.06.2017 12:00 26,2 C 66 % 1013,6 hPa 0,0 l/m W-SW 0,67 h 675 W/m 15,8 km/h (3 Bft)
15.06.2017 13:00 27,2 C 59 % 1013,3 hPa 0,0 l/m W-SW 1,00 h 900 W/m 18,6 km/h (3 Bft)
15.06.2017 14:00 27,9 C 57 % 1012,9 hPa 0,0 l/m SW 0,83 h 820 W/m 17,7 km/h (3 Bft)
15.06.2017 15:00 28,3 C 55 % 1012,4 hPa 0,0 l/m W-SW 0,75 h 630 W/m 16,1 km/h (3 Bft)
15.06.2017 16:00 22,9 C 69 % 1012,9 hPa 0,8 l/m W-NW 0,00 h 62 W/m 9,5 km/h (2 Bft)
15.06.2017 17:00 23,2 C 84 % 1012,4 hPa 0,0 l/m W 0,92 h 533 W/m 3,1 km/h (1 Bft)
15.06.2017 18:00 25,4 C 77 % 1011,9 hPa 0,2 l/m N 0,67 h 263 W/m 2,4 km/h (1 Bft)
15.06.2017 19:00 23,8 C 78 % 1011,8 hPa 0,0 l/m W 0,08 h 62 W/m 6,4 km/h (2 Bft)
15.06.2017 20:00 21,4 C 75 % 1012,6 hPa 0,0 l/m W 0,00 h 12 W/m 16,8 km/h (3 Bft)
15.06.2017 21:00 18,7 C 86 % 1014,4 hPa 3,4 l/m NW 0,00 h 0 W/m 21,6 km/h (4 Bft)
15.06.2017 22:00 17,0 C 93 % 1013,6 hPa 1,0 l/m S-SW 0,00 h 0 W/m 11,7 km/h (2 Bft)
15.06.2017 23:00 16,6 C 95 % 1014,1 hPa 0,0 l/m SW 0,00 h 0 W/m 10,2 km/h (2 Bft)
16.06.2017 00:00 16,4 C 96 % 1014,8 hPa 0,0 l/m S-SW 0,00 h 0 W/m 11,1 km/h (2 Bft)
16.06.2017 01:00 16,9 C 96 % 1014,3 hPa 0,0 l/m W-SW 0,00 h 0 W/m 17,7 km/h (3 Bft)
16.06.2017 02:00 17,3 C 96 % 1014,3 hPa 0,0 l/m W-SW 0,00 h 0 W/m 15,8 km/h (3 Bft)
16.06.2017 03:00 17,2 C 96 % 1014,6 hPa 0,0 l/m W 0,00 h 0 W/m 11,4 km/h (2 Bft)
16.06.2017 04:00 17,2 C 96 % 1014,8 hPa 0,0 l/m W-NW 0,00 h 0 W/m 6,4 km/h (2 Bft)
16.06.2017 05:00 16,9 C 96 % 1015,0 hPa 0,0 l/m W-NW 0,08 h 14 W/m 6,5 km/h (2 Bft)
16.06.2017 06:00 17,1 C 97 % 1015,6 hPa 0,0 l/m W-NW 0,00 h 72 W/m 6,2 km/h (2 Bft)
16.06.2017 07:00 17,7 C 91 % 1016,0 hPa 0,0 l/m W-NW 0,25 h 164 W/m 6,2 km/h (2 Bft)
16.06.2017 08:00 18,1 C 86 % 1016,3 hPa 0,0 l/m W-NW 0,17 h 213 W/m 11,7 km/h (2 Bft)
16.06.2017 09:00 19,1 C 80 % 1016,5 hPa 0,0 l/m W-NW 0,75 h 463 W/m 14,5 km/h (3 Bft)
16.06.2017 10:00 20,0 C 76 % 1016,6 hPa 0,2 l/m W-NW 0,67 h 433 W/m 21,6 km/h (4 Bft)
16.06.2017 11:00 20,7 C 73 % 1017,0 hPa 0,0 l/m W 0,67 h 520 W/m 19,2 km/h (3 Bft)
16.06.2017 12:00 22,1 C 63 % 1016,7 hPa 0,0 l/m W 1,00 h 727 W/m 19,4 km/h (3 Bft)
16.06.2017 13:00 23,8 C 49 % 1016,5 hPa 0,0 l/m W-NW 1,00 h 926 W/m 21,7 km/h (4 Bft)
16.06.2017 14:00 24,3 C 39 % 1016,6 hPa 0,0 l/m W-NW 1,00 h 862 W/m 23,7 km/h (4 Bft)
16.06.2017 15:00 24,4 C 33 % 1016,6 hPa 0,0 l/m W-NW 1,00 h 768 W/m 23,6 km/h (4 Bft)
16.06.2017 16:00 23,9 C 31 % 1016,9 hPa 0,0 l/m NW 1,00 h 620 W/m 24,0 km/h (4 Bft)
16.06.2017 17:00 23,1 C 32 % 1017,0 hPa 0,0 l/m W-NW 1,00 h 468 W/m 25,5 km/h (4 Bft)
16.06.2017 18:00 22,3 C 41 % 1017,3 hPa 0,0 l/m NW 1,00 h 309 W/m 19,3 km/h (3 Bft)
16.06.2017 19:00 20,8 C 48 % 1017,9 hPa 0,0 l/m N-NW 0,50 h 150 W/m 17,4 km/h (3 Bft)
16.06.2017 20:00 18,8 C 57 % 1018,5 hPa 0,0 l/m N 0,00 h 44 W/m 16,0 km/h (3 Bft)
16.06.2017 21:00 17,2 C 64 % 1019,3 hPa 0,0 l/m N-NW 0,08 h 7 W/m 12,8 km/h (3 Bft)
16.06.2017 22:00 16,1 C 68 % 1020,3 hPa 0,0 l/m NW 0,00 h 0 W/m 9,8 km/h (2 Bft)
16.06.2017 23:00 15,3 C 69 % 1020,9 hPa 0,0 l/m N-NW 0,00 h 0 W/m 8,6 km/h (2 Bft)
17.06.2017 00:00 14,9 C 70 % 1021,2 hPa 0,0 l/m N-NW 0,00 h 0 W/m 10,7 km/h (2 Bft)
17.06.2017 01:00 14,6 C 71 % 1021,2 hPa 0,0 l/m N-NW 0,00 h 0 W/m 11,0 km/h (2 Bft)
17.06.2017 02:00 13,5 C 76 % 1021,1 hPa 0,0 l/m N 0,00 h 0 W/m 2,4 km/h (1 Bft)
17.06.2017 03:00 12,3 C 82 % 1021,4 hPa 0,0 l/m N 0,00 h 0 W/m 0,1 km/h (0 Bft)
17.06.2017 04:00 11,7 C 84 % 1021,5 hPa 0,0 l/m N 0,00 h 0 W/m 0,0 km/h (0 Bft)
17.06.2017 05:00 11,4 C 86 % 1021,7 hPa 0,0 l/m N 0,17 h 16 W/m 0,4 km/h (0 Bft)
17.06.2017 06:00 11,1 C 88 % 1022,0 hPa 0,0 l/m N 0,50 h 74 W/m 0,0 km/h (0 Bft)
17.06.2017 07:00 12,8 C 87 % 1022,3 hPa 0,0 l/m NW 0,42 h 196 W/m 1,2 km/h (1 Bft)
17.06.2017 08:00 14,8 C 78 % 1022,4 hPa 0,0 l/m N-NW 0,75 h 367 W/m 9,7 km/h (2 Bft)
17.06.2017 09:00 16,6 C 70 % 1022,4 hPa 0,0 l/m N-NO 0,67 h 445 W/m 10,6 km/h (2 Bft)
17.06.2017 10:00 17,4 C 64 % 1022,5 hPa 0,0 l/m N 0,75 h 642 W/m 14,0 km/h (3 Bft)
17.06.2017 11:00 18,0 C 61 % 1022,5 hPa 0,0 l/m N-NW 0,75 h 714 W/m 12,6 km/h (3 Bft)
17.06.2017 12:00 19,3 C 56 % 1022,4 hPa 0,0 l/m N-NW 0,92 h 865 W/m 12,6 km/h (3 Bft)
17.06.2017 13:00 20,5 C 52 % 1022,4 hPa 0,0 l/m W-NW 0,92 h 880 W/m 11,3 km/h (2 Bft)
17.06.2017 14:00 21,3 C 48 % 1022,3 hPa 0,0 l/m N-NO 1,00 h 880 W/m 16,2 km/h (3 Bft)
17.06.2017 15:00 21,7 C 47 % 1022,0 hPa 0,0 l/m N 1,00 h 775 W/m 16,1 km/h (3 Bft)
17.06.2017 16:00 22,2 C 46 % 1021,8 hPa 0,0 l/m N-NW 1,00 h 643 W/m 16,4 km/h (3 Bft)
17.06.2017 17:00 22,3 C 48 % 1021,7 hPa 0,0 l/m N-NO 1,00 h 514 W/m 17,8 km/h (3 Bft)
17.06.2017 18:00 21,0 C 54 % 1021,9 hPa 0,0 l/m N-NO 0,67 h 262 W/m 18,0 km/h (3 Bft)
17.06.2017 19:00 19,5 C 58 % 1021,9 hPa 0,0 l/m N-NO 0,17 h 106 W/m 17,4 km/h (3 Bft)
17.06.2017 20:00 18,1 C 63 % 1022,0 hPa 0,0 l/m N-NO 0,00 h 33 W/m 12,9 km/h (3 Bft)
17.06.2017 21:00 16,7 C 71 % 1022,4 hPa 0,0 l/m N-NO 0,00 h 7 W/m 4,4 km/h (1 Bft)
17.06.2017 22:00 16,0 C 75 % 1022,7 hPa 0,0 l/m N 0,00 h 0 W/m 0,4 km/h (0 Bft)
17.06.2017 23:00 15,8 C 77 % 1023,1 hPa 0,0 l/m N 0,00 h 0 W/m 1,3 km/h (1 Bft)
18.06.2017 00:00 16,1 C 75 % 1023,1 hPa 0,0 l/m NO 0,00 h 0 W/m 3,9 km/h (1 Bft)
18.06.2017 01:00 16,1 C 76 % 1023,0 hPa 0,0 l/m NO 0,00 h 0 W/m 1,9 km/h (1 Bft)
18.06.2017 02:00 15,9 C 77 % 1022,7 hPa 0,0 l/m NO 0,00 h 0 W/m 1,9 km/h (1 Bft)
18.06.2017 03:00 15,7 C 79 % 1022,3 hPa 0,0 l/m N 0,00 h 0 W/m 0,0 km/h (0 Bft)
18.06.2017 04:00 15,4 C 80 % 1021,9 hPa 0,0 l/m N 0,00 h 0 W/m 0,0 km/h (0 Bft)
18.06.2017 05:00 15,1 C 81 % 1021,9 hPa 0,0 l/m N 0,00 h 8 W/m 0,0 km/h (0 Bft)
18.06.2017 06:00 15,0 C 83 % 1021,9 hPa 0,0 l/m N 0,00 h 23 W/m 0,7 km/h (0 Bft)
18.06.2017 07:00 15,1 C 83 % 1021,7 hPa 0,0 l/m NO 0,00 h 95 W/m 7,8 km/h (2 Bft)
18.06.2017 08:00 16,5 C 79 % 1021,6 hPa 0,0 l/m O-NO 0,75 h 360 W/m 11,4 km/h (2 Bft)
18.06.2017 09:00 17,5 C 73 % 1021,6 hPa 0,0 l/m O-NO 0,25 h 322 W/m 16,0 km/h (3 Bft)
18.06.2017 10:00 18,9 C 66 % 1021,4 hPa 0,0 l/m O-NO 0,25 h 424 W/m 18,2 km/h (3 Bft)
18.06.2017 11:00 20,5 C 58 % 1021,1 hPa 0,0 l/m O 1,00 h 935 W/m 19,7 km/h (3 Bft)
18.06.2017 12:00 21,3 C 54 % 1020,8 hPa 0,0 l/m O-SO 1,00 h 903 W/m 19,4 km/h (3 Bft)
18.06.2017 13:00 22,6 C 49 % 1020,4 hPa 0,0 l/m O-SO 1,00 h 902 W/m 21,4 km/h (4 Bft)
18.06.2017 14:00 23,3 C 44 % 1019,9 hPa 0,0 l/m O-SO 1,00 h 870 W/m 21,4 km/h (4 Bft)
18.06.2017 15:00 23,9 C 41 % 1019,5 hPa 0,0 l/m O-NO 1,00 h 781 W/m 23,6 km/h (4 Bft)
18.06.2017 16:00 24,3 C 42 % 1019,1 hPa 0,0 l/m O-NO 1,00 h 663 W/m 21,8 km/h (4 Bft)
18.06.2017 17:00 24,6 C 41 % 1018,8 hPa 0,0 l/m O 1,00 h 526 W/m 20,2 km/h (4 Bft)
18.06.2017 18:00 24,2 C 42 % 1018,6 hPa 0,0 l/m O-SO 1,00 h 362 W/m 21,2 km/h (4 Bft)
18.06.2017 19:00 23,2 C 45 % 1018,8 hPa 0,0 l/m O 1,00 h 188 W/m 17,3 km/h (3 Bft)
18.06.2017 20:00 21,7 C 50 % 1018,9 hPa 0,0 l/m O-NO 0,00 h 42 W/m 13,5 km/h (3 Bft)
18.06.2017 21:00 20,0 C 57 % 1019,1 hPa 0,0 l/m O-NO 0,08 h 9 W/m 7,1 km/h (2 Bft)
18.06.2017 22:00 18,5 C 61 % 1019,6 hPa 0,0 l/m O-NO 0,00 h 0 W/m 6,7 km/h (2 Bft)
18.06.2017 23:00 17,2 C 65 % 1019,7 hPa 0,0 l/m O-NO 0,00 h 0 W/m 4,8 km/h (1 Bft)
Min-Datum _ 17.06.17 16.06.17 15.06.17 - - - - 12.06.17
_ Min-Zeit 06:20 15:55 19:20 - - - - 00:00
Minimum _ 10,8 C 29 % 1011,4 hPa - - - - 0,0 km/h (0 Bft)
Max-Datum _ 15.06.17 16.06.17 17.06.17 15.06.17 - 12.06.17 16.06.17 12.06.17
_ Max-Zeit 15:30 05:50 23:50 21:35 - 05:35 13:00 18:15
Maximum _ 28,9 C 97 % 1023,3 hPa 3,4 l/m - 0,08 h 1218 W/m 35,4 km/h
W-NW (5 Bft)
Durchschnitt _ 19,5 C 69 % 1016,3 hPa #5,6 l/m N-NO #71:25 h 405 W/m 9,7 km/h (2 Bft)